Terminal Aerodrome Forecast
Issued by NWS

Home | Current Version | Previous Version | Text Only | Print | Product List | Glossary On
Versions: 1 2 3 4 5 6 7 8 9 10 11 12 13 14 15 16 17 18 19 20
000
FTUS46 KPDT 010500
TAFDLS
TAF
KDLS 010521Z 0106/0206 10004KT P6SM OVC018
      TEMPO 0110/0114 5SM BR OVC012
     FM011500 VRB04KT P6SM OVC015 PROB30 0118/0121 5SM -RA OVC010
     FM012100 30008KT P6SM OVC020=

USA.gov is the U.S. government's official web portal to all federal, state and local government web resources and services.